sensor_id;sensor_type;location;lat;lon;timestamp;pressure;altitude;pressure_sealevel;temperature;humidity
28448;BME280;15675;52.870;-1.416;2022-08-19T00:00:04;100557.03;;;20.03;100.00
28448;BME280;15675;52.870;-1.416;2022-08-19T00:02:30;100556.84;;;20.07;100.00
28448;BME280;15675;52.870;-1.416;2022-08-19T00:04:56;100560.28;;;20.09;100.00
28448;BME280;15675;52.870;-1.416;2022-08-19T00:07:22;100558.91;;;19.99;100.00
28448;BME280;15675;52.870;-1.416;2022-08-19T00:09:47;100560.22;;;20.11;100.00
28448;BME280;15675;52.870;-1.416;2022-08-19T00:12:13;100567.16;;;20.13;100.00
28448;BME280;15675;52.870;-1.416;2022-08-19T00:14:39;100561.63;;;19.97;100.00
28448;BME280;15675;52.870;-1.416;2022-08-19T00:17:06;100573.19;;;19.93;100.00
28448;BME280;15675;52.870;-1.416;2022-08-19T00:19:33;100562.63;;;19.93;100.00
28448;BME280;15675;52.870;-1.416;2022-08-19T00:21:59;100560.66;;;20.00;100.00
28448;BME280;15675;52.870;-1.416;2022-08-19T00:24:25;100563.53;;;19.94;100.00
28448;BME280;15675;52.870;-1.416;2022-08-19T00:26:51;100562.94;;;19.86;100.00
28448;BME280;15675;52.870;-1.416;2022-08-19T00:29:20;100550.16;;;19.98;100.00
28448;BME280;15675;52.870;-1.416;2022-08-19T00:31:46;100556.78;;;20.09;100.00
28448;BME280;15675;52.870;-1.416;2022-08-19T00:34:13;100549.06;;;20.04;100.00
28448;BME280;15675;52.870;-1.416;2022-08-19T00:36:40;100552.28;;;19.89;100.00
28448;BME280;15675;52.870;-1.416;2022-08-19T00:39:06;100540.56;;;19.72;100.00
28448;BME280;15675;52.870;-1.416;2022-08-19T00:41:32;100532.13;;;19.64;100.00
28448;BME280;15675;52.870;-1.416;2022-08-19T00:44:14;100542.41;;;19.70;100.00
28448;BME280;15675;52.870;-1.416;2022-08-19T00:46:47;100542.28;;;19.73;100.00
28448;BME280;15675;52.870;-1.416;2022-08-19T00:49:22;100543.50;;;19.64;100.00
28448;BME280;15675;52.870;-1.416;2022-08-19T00:51:54;100543.13;;;19.74;100.00
28448;BME280;15675;52.870;-1.416;2022-08-19T00:54:22;100547.91;;;19.64;100.00
28448;BME280;15675;52.870;-1.416;2022-08-19T00:56:49;100543.44;;;19.66;100.00
28448;BME280;15675;52.870;-1.416;2022-08-19T00:59:16;100553.13;;;19.65;100.00
28448;BME280;15675;52.870;-1.416;2022-08-19T01:01:44;100545.84;;;19.48;100.00
28448;BME280;15675;52.870;-1.416;2022-08-19T01:04:11;100551.03;;;19.50;100.00
28448;BME280;15675;52.870;-1.416;2022-08-19T01:06:39;100542.25;;;19.51;100.00
28448;BME280;15675;52.870;-1.416;2022-08-19T01:09:06;100551.88;;;19.51;100.00
28448;BME280;15675;52.870;-1.416;2022-08-19T01:11:35;100546.19;;;19.63;100.00
28448;BME280;15675;52.870;-1.416;2022-08-19T01:14:02;100556.31;;;19.74;100.00
28448;BME280;15675;52.870;-1.416;2022-08-19T01:16:28;100545.34;;;19.62;100.00
28448;BME280;15675;52.870;-1.416;2022-08-19T01:18:55;100540.06;;;19.62;100.00
28448;BME280;15675;52.870;-1.416;2022-08-19T01:23:51;100547.69;;;19.70;100.00
28448;BME280;15675;52.870;-1.416;2022-08-19T01:26:20;100545.00;;;19.72;100.00
28448;BME280;15675;52.870;-1.416;2022-08-19T01:28:48;100552.94;;;19.70;100.00
28448;BME280;15675;52.870;-1.416;2022-08-19T01:31:17;100554.66;;;19.71;100.00
28448;BME280;15675;52.870;-1.416;2022-08-19T01:33:44;100554.25;;;19.58;100.00
28448;BME280;15675;52.870;-1.416;2022-08-19T01:36:22;100570.41;;;19.73;100.00
28448;BME280;15675;52.870;-1.416;2022-08-19T01:38:49;100569.31;;;19.78;100.00
28448;BME280;15675;52.870;-1.416;2022-08-19T01:41:17;100571.25;;;19.73;100.00
28448;BME280;15675;52.870;-1.416;2022-08-19T01:43:44;100573.25;;;19.66;100.00
28448;BME280;15675;52.870;-1.416;2022-08-19T01:46:09;100570.16;;;19.80;100.00
28448;BME280;15675;52.870;-1.416;2022-08-19T01:48:37;100572.56;;;19.87;100.00
28448;BME280;15675;52.870;-1.416;2022-08-19T01:51:04;100570.66;;;19.90;100.00
28448;BME280;15675;52.870;-1.416;2022-08-19T01:53:30;100573.00;;;19.98;100.00
28448;BME280;15675;52.870;-1.416;2022-08-19T01:55:56;100569.97;;;20.09;100.00
28448;BME280;15675;52.870;-1.416;2022-08-19T01:58:26;100575.94;;;20.14;100.00
28448;BME280;15675;52.870;-1.416;2022-08-19T02:00:54;100571.31;;;20.19;100.00
28448;BME280;15675;52.870;-1.416;2022-08-19T02:03:20;100563.34;;;19.98;100.00
28448;BME280;15675;52.870;-1.416;2022-08-19T02:05:45;100580.34;;;19.90;100.00
28448;BME280;15675;52.870;-1.416;2022-08-19T02:08:12;100566.03;;;19.97;100.00
28448;BME280;15675;52.870;-1.416;2022-08-19T02:10:42;100578.91;;;20.05;100.00
28448;BME280;15675;52.870;-1.416;2022-08-19T02:13:10;100570.66;;;20.14;100.00
28448;BME280;15675;52.870;-1.416;2022-08-19T02:15:36;100563.72;;;20.11;100.00
28448;BME280;15675;52.870;-1.416;2022-08-19T02:18:02;100564.06;;;20.02;100.00
28448;BME280;15675;52.870;-1.416;2022-08-19T02:20:28;100571.75;;;19.85;100.00
28448;BME280;15675;52.870;-1.416;2022-08-19T02:22:54;100605.06;;;19.60;100.00
28448;BME280;15675;52.870;-1.416;2022-08-19T02:25:19;100620.38;;;18.69;100.00
28448;BME280;15675;52.870;-1.416;2022-08-19T02:27:46;100598.03;;;17.96;100.00
28448;BME280;15675;52.870;-1.416;2022-08-19T02:30:14;100601.19;;;17.75;100.00
28448;BME280;15675;52.870;-1.416;2022-08-19T02:32:41;100608.19;;;17.76;100.00
28448;BME280;15675;52.870;-1.416;2022-08-19T02:35:07;100598.38;;;17.83;100.00
28448;BME280;15675;52.870;-1.416;2022-08-19T02:37:34;100608.19;;;17.76;100.00
28448;BME280;15675;52.870;-1.416;2022-08-19T02:40:18;100611.44;;;17.85;100.00
28448;BME280;15675;52.870;-1.416;2022-08-19T02:42:45;100608.44;;;17.67;98.94
28448;BME280;15675;52.870;-1.416;2022-08-19T02:45:12;100623.31;;;17.67;98.91
28448;BME280;15675;52.870;-1.416;2022-08-19T02:47:38;100631.88;;;17.73;97.69
28448;BME280;15675;52.870;-1.416;2022-08-19T02:50:05;100625.94;;;17.67;96.35
28448;BME280;15675;52.870;-1.416;2022-08-19T02:52:32;100624.06;;;17.72;93.54
28448;BME280;15675;52.870;-1.416;2022-08-19T02:54:58;100627.09;;;17.56;93.93
28448;BME280;15675;52.870;-1.416;2022-08-19T02:57:25;100628.72;;;17.60;94.25
28448;BME280;15675;52.870;-1.416;2022-08-19T02:59:52;100615.28;;;17.73;94.43
28448;BME280;15675;52.870;-1.416;2022-08-19T03:02:18;100622.09;;;17.80;95.17
28448;BME280;15675;52.870;-1.416;2022-08-19T03:04:44;100619.28;;;17.86;95.06
28448;BME280;15675;52.870;-1.416;2022-08-19T03:07:13;100629.03;;;17.81;94.83
28448;BME280;15675;52.870;-1.416;2022-08-19T03:09:39;100629.78;;;17.86;95.24
28448;BME280;15675;52.870;-1.416;2022-08-19T03:12:04;100626.06;;;17.95;94.96
28448;BME280;15675;52.870;-1.416;2022-08-19T03:14:31;100632.00;;;18.02;95.65
28448;BME280;15675;52.870;-1.416;2022-08-19T03:16:57;100633.66;;;18.36;95.48
28448;BME280;15675;52.870;-1.416;2022-08-19T03:19:23;100628.34;;;18.37;95.17
28448;BME280;15675;52.870;-1.416;2022-08-19T03:21:50;100630.47;;;18.24;97.12
28448;BME280;15675;52.870;-1.416;2022-08-19T03:24:19;100632.94;;;17.99;98.95
28448;BME280;15675;52.870;-1.416;2022-08-19T03:26:48;100631.75;;;17.78;97.63
28448;BME280;15675;52.870;-1.416;2022-08-19T03:29:15;100635.94;;;17.52;95.61
28448;BME280;15675;52.870;-1.416;2022-08-19T03:31:43;100635.19;;;17.47;94.17
28448;BME280;15675;52.870;-1.416;2022-08-19T03:34:27;100638.81;;;17.43;93.96
28448;BME280;15675;52.870;-1.416;2022-08-19T03:36:55;100649.53;;;17.34;92.67
28448;BME280;15675;52.870;-1.416;2022-08-19T03:39:22;100651.09;;;17.41;93.14
28448;BME280;15675;52.870;-1.416;2022-08-19T03:41:49;100647.59;;;17.42;93.00
28448;BME280;15675;52.870;-1.416;2022-08-19T03:44:19;100639.13;;;17.31;92.92
28448;BME280;15675;52.870;-1.416;2022-08-19T03:46:48;100641.44;;;17.43;92.74
28448;BME280;15675;52.870;-1.416;2022-08-19T03:49:15;100643.16;;;17.44;92.34
28448;BME280;15675;52.870;-1.416;2022-08-19T03:51:42;100643.19;;;17.42;93.01
28448;BME280;15675;52.870;-1.416;2022-08-19T03:54:10;100639.22;;;17.28;95.07
28448;BME280;15675;52.870;-1.416;2022-08-19T03:56:38;100644.78;;;17.14;98.51
28448;BME280;15675;52.870;-1.416;2022-08-19T03:59:07;100644.91;;;17.09;100.00
28448;BME280;15675;52.870;-1.416;2022-08-19T04:01:34;100644.78;;;17.14;100.00
28448;BME280;15675;52.870;-1.416;2022-08-19T04:04:00;100647.78;;;16.98;99.56
28448;BME280;15675;52.870;-1.416;2022-08-19T04:06:29;100649.22;;;16.72;100.00
28448;BME280;15675;52.870;-1.416;2022-08-19T04:08:57;100648.06;;;16.84;100.00
28448;BME280;15675;52.870;-1.416;2022-08-19T04:11:26;100656.78;;;16.86;100.00
28448;BME280;15675;52.870;-1.416;2022-08-19T04:13:53;100652.06;;;17.02;100.00
28448;BME280;15675;52.870;-1.416;2022-08-19T04:16:23;100652.41;;;17.24;99.48
28448;BME280;15675;52.870;-1.416;2022-08-19T04:18:49;100657.31;;;17.37;98.15
28448;BME280;15675;52.870;-1.416;2022-08-19T04:21:19;100659.63;;;17.49;97.13
28448;BME280;15675;52.870;-1.416;2022-08-19T04:23:45;100663.28;;;17.43;95.67
28448;BME280;15675;52.870;-1.416;2022-08-19T04:26:20;100661.09;;;17.27;96.52
28448;BME280;15675;52.870;-1.416;2022-08-19T04:28:46;100654.09;;;17.25;96.94
28448;BME280;15675;52.870;-1.416;2022-08-19T04:31:18;100671.34;;;17.00;98.43
28448;BME280;15675;52.870;-1.416;2022-08-19T04:33:45;100668.16;;;16.85;100.00
28448;BME280;15675;52.870;-1.416;2022-08-19T04:36:37;100677.63;;;16.93;100.00
28448;BME280;15675;52.870;-1.416;2022-08-19T04:39:09;100666.13;;;16.59;100.00
28448;BME280;15675;52.870;-1.416;2022-08-19T04:41:35;100671.69;;;16.01;100.00
28448;BME280;15675;52.870;-1.416;2022-08-19T04:44:19;100677.47;;;16.17;100.00
28448;BME280;15675;52.870;-1.416;2022-08-19T04:46:46;100679.34;;;16.12;100.00
28448;BME280;15675;52.870;-1.416;2022-08-19T04:49:14;100683.34;;;16.29;100.00
28448;BME280;15675;52.870;-1.416;2022-08-19T04:51:43;100688.34;;;16.41;100.00
28448;BME280;15675;52.870;-1.416;2022-08-19T04:54:10;100691.00;;;16.39;100.00
28448;BME280;15675;52.870;-1.416;2022-08-19T04:56:36;100697.81;;;16.47;100.00
28448;BME280;15675;52.870;-1.416;2022-08-19T04:59:02;100705.31;;;16.21;100.00
28448;BME280;15675;52.870;-1.416;2022-08-19T05:01:32;100701.56;;;16.35;100.00
28448;BME280;15675;52.870;-1.416;2022-08-19T05:04:03;100703.91;;;16.47;100.00
28448;BME280;15675;52.870;-1.416;2022-08-19T05:06:30;100713.56;;;16.45;100.00
28448;BME280;15675;52.870;-1.416;2022-08-19T05:08:58;100721.97;;;16.17;100.00
28448;BME280;15675;52.870;-1.416;2022-08-19T05:11:27;100720.44;;;16.07;100.00
28448;BME280;15675;52.870;-1.416;2022-08-19T05:13:54;100723.72;;;16.18;100.00
28448;BME280;15675;52.870;-1.416;2022-08-19T05:16:21;100720.22;;;16.19;100.00
28448;BME280;15675;52.870;-1.416;2022-08-19T05:18:48;100728.34;;;16.04;100.00
28448;BME280;15675;52.870;-1.416;2022-08-19T05:21:33;100735.13;;;16.14;100.00
28448;BME280;15675;52.870;-1.416;2022-08-19T05:24:18;100739.63;;;16.06;100.00
28448;BME280;15675;52.870;-1.416;2022-08-19T05:26:47;100744.19;;;15.98;100.00
28448;BME280;15675;52.870;-1.416;2022-08-19T05:29:15;100743.38;;;15.93;100.00
28448;BME280;15675;52.870;-1.416;2022-08-19T05:31:41;100739.16;;;15.85;100.00
28448;BME280;15675;52.870;-1.416;2022-08-19T05:34:07;100736.28;;;15.99;100.00
28448;BME280;15675;52.870;-1.416;2022-08-19T05:36:41;100740.44;;;16.11;100.00
28448;BME280;15675;52.870;-1.416;2022-08-19T05:39:11;100750.13;;;16.08;100.00
28448;BME280;15675;52.870;-1.416;2022-08-19T05:41:45;100744.78;;;16.12;100.00
28448;BME280;15675;52.870;-1.416;2022-08-19T05:44:12;100744.31;;;16.35;100.00
28448;BME280;15675;52.870;-1.416;2022-08-19T05:46:38;100742.97;;;16.60;100.00
28448;BME280;15675;52.870;-1.416;2022-08-19T05:49:07;100747.59;;;16.47;100.00
28448;BME280;15675;52.870;-1.416;2022-08-19T05:51:34;100741.50;;;16.46;100.00
28448;BME280;15675;52.870;-1.416;2022-08-19T05:54:01;100750.72;;;16.64;100.00
28448;BME280;15675;52.870;-1.416;2022-08-19T05:56:28;100751.28;;;16.80;100.00
28448;BME280;15675;52.870;-1.416;2022-08-19T05:58:56;100759.84;;;16.87;100.00
28448;BME280;15675;52.870;-1.416;2022-08-19T06:01:21;100756.56;;;16.77;100.00
28448;BME280;15675;52.870;-1.416;2022-08-19T06:03:47;100764.50;;;16.74;100.00
28448;BME280;15675;52.870;-1.416;2022-08-19T06:06:15;100762.09;;;16.65;100.00
28448;BME280;15675;52.870;-1.416;2022-08-19T06:08:41;100778.69;;;16.18;100.00
28448;BME280;15675;52.870;-1.416;2022-08-19T06:11:20;100775.47;;;16.04;100.00
28448;BME280;15675;52.870;-1.416;2022-08-19T06:13:47;100778.72;;;16.17;100.00
28448;BME280;15675;52.870;-1.416;2022-08-19T06:16:14;100772.00;;;16.03;100.00
28448;BME280;15675;52.870;-1.416;2022-08-19T06:19:00;100775.00;;;15.82;100.00
28448;BME280;15675;52.870;-1.416;2022-08-19T06:21:28;100787.09;;;15.87;100.00
28448;BME280;15675;52.870;-1.416;2022-08-19T06:23:55;100780.22;;;15.83;100.00
28448;BME280;15675;52.870;-1.416;2022-08-19T06:26:23;100773.00;;;15.96;100.00
28448;BME280;15675;52.870;-1.416;2022-08-19T06:28:49;100771.03;;;16.09;100.00
28448;BME280;15675;52.870;-1.416;2022-08-19T06:31:21;100767.13;;;16.32;100.00
28448;BME280;15675;52.870;-1.416;2022-08-19T06:33:48;100772.81;;;16.05;100.00
28448;BME280;15675;52.870;-1.416;2022-08-19T06:36:24;100776.78;;;16.28;100.00
28448;BME280;15675;52.870;-1.416;2022-08-19T06:38:57;100779.81;;;16.52;100.00
28448;BME280;15675;52.870;-1.416;2022-08-19T06:41:25;100774.41;;;16.60;100.00
28448;BME280;15675;52.870;-1.416;2022-08-19T06:43:51;100774.28;;;16.66;100.00
28448;BME280;15675;52.870;-1.416;2022-08-19T06:46:17;100778.78;;;16.59;98.74
28448;BME280;15675;52.870;-1.416;2022-08-19T06:48:46;100778.84;;;16.11;98.09
28448;BME280;15675;52.870;-1.416;2022-08-19T06:51:16;100784.75;;;16.22;99.86
28448;BME280;15675;52.870;-1.416;2022-08-19T06:53:50;100786.44;;;16.26;98.88
28448;BME280;15675;52.870;-1.416;2022-08-19T06:56:18;100780.44;;;16.19;98.43
28448;BME280;15675;52.870;-1.416;2022-08-19T06:58:44;100778.28;;;16.40;97.09
28448;BME280;15675;52.870;-1.416;2022-08-19T07:01:12;100791.28;;;16.46;96.25
28448;BME280;15675;52.870;-1.416;2022-08-19T07:03:38;100790.03;;;16.64;94.62
28448;BME280;15675;52.870;-1.416;2022-08-19T07:06:11;100783.88;;;16.67;94.09
28448;BME280;15675;52.870;-1.416;2022-08-19T07:08:38;100792.22;;;16.84;94.15
28448;BME280;15675;52.870;-1.416;2022-08-19T07:11:09;100790.50;;;16.85;92.40
28448;BME280;15675;52.870;-1.416;2022-08-19T07:13:37;100792.72;;;16.61;92.40
28448;BME280;15675;52.870;-1.416;2022-08-19T07:16:05;100793.59;;;16.60;91.30
28448;BME280;15675;52.870;-1.416;2022-08-19T07:18:31;100800.41;;;16.70;92.37
28448;BME280;15675;52.870;-1.416;2022-08-19T07:21:10;100793.59;;;17.04;92.14
28448;BME280;15675;52.870;-1.416;2022-08-19T07:23:36;100799.69;;;17.04;91.00
28448;BME280;15675;52.870;-1.416;2022-08-19T07:26:15;100809.94;;;16.73;90.64
28448;BME280;15675;52.870;-1.416;2022-08-19T07:28:42;100816.66;;;16.88;91.32
28448;BME280;15675;52.870;-1.416;2022-08-19T07:31:13;100819.31;;;16.85;91.00
28448;BME280;15675;52.870;-1.416;2022-08-19T07:33:40;100810.72;;;16.78;91.46
28448;BME280;15675;52.870;-1.416;2022-08-19T07:36:09;100813.13;;;16.90;91.48
28448;BME280;15675;52.870;-1.416;2022-08-19T07:38:37;100810.28;;;17.00;90.72
28448;BME280;15675;52.870;-1.416;2022-08-19T07:41:05;100813.66;;;17.06;90.57
28448;BME280;15675;52.870;-1.416;2022-08-19T07:43:31;100810.19;;;17.06;90.48
28448;BME280;15675;52.870;-1.416;2022-08-19T07:45:57;100811.59;;;17.21;89.83
28448;BME280;15675;52.870;-1.416;2022-08-19T07:48:24;100815.63;;;16.95;90.89
28448;BME280;15675;52.870;-1.416;2022-08-19T07:50:58;100809.59;;;16.93;89.94
28448;BME280;15675;52.870;-1.416;2022-08-19T07:53:28;100821.78;;;16.94;88.68
28448;BME280;15675;52.870;-1.416;2022-08-19T07:55:54;100832.00;;;17.06;86.03
28448;BME280;15675;52.870;-1.416;2022-08-19T07:58:22;100821.34;;;17.14;85.35
28448;BME280;15675;52.870;-1.416;2022-08-19T08:00:49;100823.84;;;17.20;85.39
28448;BME280;15675;52.870;-1.416;2022-08-19T08:03:19;100809.66;;;17.67;83.25
28448;BME280;15675;52.870;-1.416;2022-08-19T08:05:45;100817.16;;;17.46;80.82
28448;BME280;15675;52.870;-1.416;2022-08-19T08:08:30;100831.50;;;17.30;81.59
28448;BME280;15675;52.870;-1.416;2022-08-19T08:10:57;100827.94;;;17.32;78.82
28448;BME280;15675;52.870;-1.416;2022-08-19T08:13:24;100840.72;;;17.48;78.94
28448;BME280;15675;52.870;-1.416;2022-08-19T08:15:50;100836.13;;;17.57;77.97
28448;BME280;15675;52.870;-1.416;2022-08-19T08:18:15;100841.25;;;17.62;79.63
28448;BME280;15675;52.870;-1.416;2022-08-19T08:20:41;100839.88;;;17.46;78.89
28448;BME280;15675;52.870;-1.416;2022-08-19T08:23:07;100840.84;;;17.43;77.22
28448;BME280;15675;52.870;-1.416;2022-08-19T08:25:53;100842.59;;;17.41;79.09
28448;BME280;15675;52.870;-1.416;2022-08-19T08:28:20;100836.78;;;18.03;79.33
28448;BME280;15675;52.870;-1.416;2022-08-19T08:30:47;100845.72;;;17.96;78.08
28448;BME280;15675;52.870;-1.416;2022-08-19T08:33:17;100842.00;;;18.05;79.58
28448;BME280;15675;52.870;-1.416;2022-08-19T08:35:43;100837.03;;;18.28;78.56
28448;BME280;15675;52.870;-1.416;2022-08-19T08:38:11;100839.44;;;18.02;77.93
28448;BME280;15675;52.870;-1.416;2022-08-19T08:43:40;100832.00;;;18.19;76.44
28448;BME280;15675;52.870;-1.416;2022-08-19T08:46:14;100834.75;;;18.15;77.52
28448;BME280;15675;52.870;-1.416;2022-08-19T08:48:48;100835.47;;;17.84;79.57
28448;BME280;15675;52.870;-1.416;2022-08-19T08:51:25;100834.47;;;17.89;79.61
28448;BME280;15675;52.870;-1.416;2022-08-19T08:53:54;100840.09;;;18.11;74.58
28448;BME280;15675;52.870;-1.416;2022-08-19T08:56:22;100834.84;;;18.11;73.15
28448;BME280;15675;52.870;-1.416;2022-08-19T08:58:59;100838.91;;;18.23;72.53
28448;BME280;15675;52.870;-1.416;2022-08-19T09:01:27;100840.72;;;18.21;71.24
28448;BME280;15675;52.870;-1.416;2022-08-19T09:03:53;100832.94;;;18.50;67.00
28448;BME280;15675;52.870;-1.416;2022-08-19T09:14:37;100845.91;;;18.89;60.90
28448;BME280;15675;52.870;-1.416;2022-08-19T09:17:09;100843.72;;;18.72;61.29
28448;BME280;15675;52.870;-1.416;2022-08-19T09:19:46;100830.34;;;19.11;61.99
28448;BME280;15675;52.870;-1.416;2022-08-19T09:22:12;100822.22;;;19.47;60.52
28448;BME280;15675;52.870;-1.416;2022-08-19T09:24:38;100831.16;;;19.13;59.29
28448;BME280;15675;52.870;-1.416;2022-08-19T09:27:05;100833.00;;;19.09;58.60
28448;BME280;15675;52.870;-1.416;2022-08-19T09:29:30;100833.97;;;19.07;58.42
28448;BME280;15675;52.870;-1.416;2022-08-19T09:31:56;100830.25;;;19.42;57.80
28448;BME280;15675;52.870;-1.416;2022-08-19T09:34:22;100844.47;;;19.08;57.47
28448;BME280;15675;52.870;-1.416;2022-08-19T09:36:49;100830.06;;;19.20;57.21
28448;BME280;15675;52.870;-1.416;2022-08-19T09:39:18;100832.41;;;19.58;55.92
28448;BME280;15675;52.870;-1.416;2022-08-19T09:41:44;100842.22;;;18.94;58.94
28448;BME280;15675;52.870;-1.416;2022-08-19T09:44:10;100827.13;;;19.86;57.99
28448;BME280;15675;52.870;-1.416;2022-08-19T09:46:37;100838.34;;;19.36;55.95
28448;BME280;15675;52.870;-1.416;2022-08-19T09:49:02;100838.16;;;19.12;56.58
28448;BME280;15675;52.870;-1.416;2022-08-19T09:51:32;100843.09;;;19.53;56.96
28448;BME280;15675;52.870;-1.416;2022-08-19T09:54:00;100843.22;;;19.77;58.12
28448;BME280;15675;52.870;-1.416;2022-08-19T09:56:28;100853.94;;;19.42;56.52
28448;BME280;15675;52.870;-1.416;2022-08-19T09:58:54;100839.50;;;19.27;57.11
28448;BME280;15675;52.870;-1.416;2022-08-19T10:01:25;100846.91;;;19.71;57.39
28448;BME280;15675;52.870;-1.416;2022-08-19T10:03:55;100848.25;;;20.11;56.81
28448;BME280;15675;52.870;-1.416;2022-08-19T10:06:23;100829.38;;;19.98;55.34
28448;BME280;15675;52.870;-1.416;2022-08-19T10:08:50;100843.72;;;20.15;55.34
28448;BME280;15675;52.870;-1.416;2022-08-19T10:11:18;100828.25;;;19.77;55.36
28448;BME280;15675;52.870;-1.416;2022-08-19T10:13:46;100840.13;;;19.36;56.00
28448;BME280;15675;52.870;-1.416;2022-08-19T10:16:15;100834.94;;;19.61;57.04
28448;BME280;15675;52.870;-1.416;2022-08-19T10:18:42;100838.50;;;19.31;56.41
28448;BME280;15675;52.870;-1.416;2022-08-19T10:21:15;100849.88;;;19.02;56.27
28448;BME280;15675;52.870;-1.416;2022-08-19T10:23:44;100852.59;;;19.29;57.42
28448;BME280;15675;52.870;-1.416;2022-08-19T10:26:16;100855.34;;;19.82;56.98
28448;BME280;15675;52.870;-1.416;2022-08-19T10:28:42;100850.22;;;19.76;56.49
28448;BME280;15675;52.870;-1.416;2022-08-19T10:31:18;100839.13;;;19.95;57.57
28448;BME280;15675;52.870;-1.416;2022-08-19T10:33:46;100854.63;;;19.49;57.62
28448;BME280;15675;52.870;-1.416;2022-08-19T10:36:20;100856.28;;;19.23;58.52
28448;BME280;15675;52.870;-1.416;2022-08-19T10:38:50;100850.25;;;19.48;57.42
28448;BME280;15675;52.870;-1.416;2022-08-19T10:41:19;100856.50;;;19.72;56.41
28448;BME280;15675;52.870;-1.416;2022-08-19T10:43:45;100854.03;;;19.96;55.35
28448;BME280;15675;52.870;-1.416;2022-08-19T10:46:13;100840.63;;;19.75;55.28
28448;BME280;15675;52.870;-1.416;2022-08-19T10:48:41;100851.38;;;20.48;56.07
28448;BME280;15675;52.870;-1.416;2022-08-19T10:51:07;100856.00;;;20.41;55.00
28448;BME280;15675;52.870;-1.416;2022-08-19T10:53:51;100850.09;;;20.08;55.47
28448;BME280;15675;52.870;-1.416;2022-08-19T10:56:18;100847.28;;;20.14;54.69
28448;BME280;15675;52.870;-1.416;2022-08-19T10:59:03;100846.13;;;19.96;54.93
28448;BME280;15675;52.870;-1.416;2022-08-19T11:01:30;100847.91;;;20.21;55.66
28448;BME280;15675;52.870;-1.416;2022-08-19T11:03:59;100840.31;;;20.62;54.72
28448;BME280;15675;52.870;-1.416;2022-08-19T11:06:25;100839.53;;;20.60;53.59
28448;BME280;15675;52.870;-1.416;2022-08-19T11:08:54;100844.44;;;20.71;53.78
28448;BME280;15675;52.870;-1.416;2022-08-19T11:11:21;100829.34;;;20.49;54.90
28448;BME280;15675;52.870;-1.416;2022-08-19T11:13:47;100840.06;;;19.94;54.59
28448;BME280;15675;52.870;-1.416;2022-08-19T11:16:25;100849.16;;;19.55;54.22
28448;BME280;15675;52.870;-1.416;2022-08-19T11:18:54;100848.66;;;19.44;55.10
28448;BME280;15675;52.870;-1.416;2022-08-19T11:21:32;100853.63;;;20.08;55.02
28448;BME280;15675;52.870;-1.416;2022-08-19T11:24:01;100862.34;;;20.35;53.75
28448;BME280;15675;52.870;-1.416;2022-08-19T11:26:29;100850.03;;;19.84;55.28
28448;BME280;15675;52.870;-1.416;2022-08-19T11:28:57;100846.88;;;19.44;55.97
28448;BME280;15675;52.870;-1.416;2022-08-19T11:31:29;100842.94;;;19.86;56.23
28448;BME280;15675;52.870;-1.416;2022-08-19T11:34:00;100845.31;;;19.94;55.12
28448;BME280;15675;52.870;-1.416;2022-08-19T11:36:27;100835.69;;;19.93;54.56
28448;BME280;15675;52.870;-1.416;2022-08-19T11:38:53;100831.72;;;19.53;55.17
28448;BME280;15675;52.870;-1.416;2022-08-19T11:41:21;100847.44;;;19.82;55.94
28448;BME280;15675;52.870;-1.416;2022-08-19T11:43:49;100838.31;;;20.20;54.74
28448;BME280;15675;52.870;-1.416;2022-08-19T11:46:16;100844.16;;;19.74;53.70
28448;BME280;15675;52.870;-1.416;2022-08-19T11:48:43;100842.28;;;19.78;54.48
28448;BME280;15675;52.870;-1.416;2022-08-19T11:51:15;100839.16;;;20.45;54.79
28448;BME280;15675;52.870;-1.416;2022-08-19T11:53:41;100835.44;;;20.00;53.48
28448;BME280;15675;52.870;-1.416;2022-08-19T11:56:08;100836.66;;;19.62;54.95
28448;BME280;15675;52.870;-1.416;2022-08-19T11:58:35;100832.94;;;20.23;55.49
28448;BME280;15675;52.870;-1.416;2022-08-19T12:01:01;100832.13;;;20.71;53.89
28448;BME280;15675;52.870;-1.416;2022-08-19T12:03:30;100834.06;;;20.90;52.98
28448;BME280;15675;52.870;-1.416;2022-08-19T12:05:55;100840.97;;;21.16;53.15
28448;BME280;15675;52.870;-1.416;2022-08-19T12:08:22;100836.50;;;20.71;51.94
28448;BME280;15675;52.870;-1.416;2022-08-19T12:10:48;100839.97;;;20.73;52.48
28448;BME280;15675;52.870;-1.416;2022-08-19T12:13:14;100839.97;;;20.96;51.26
28448;BME280;15675;52.870;-1.416;2022-08-19T12:15:46;100845.47;;;20.90;51.07
28448;BME280;15675;52.870;-1.416;2022-08-19T12:18:12;100844.50;;;21.16;51.30
28448;BME280;15675;52.870;-1.416;2022-08-19T12:20:42;100843.44;;;21.20;51.26
28448;BME280;15675;52.870;-1.416;2022-08-19T12:23:09;100867.03;;;20.52;52.21
28448;BME280;15675;52.870;-1.416;2022-08-19T12:25:37;100850.78;;;20.40;54.27
28448;BME280;15675;52.870;-1.416;2022-08-19T12:28:08;100858.56;;;20.69;54.24
28448;BME280;15675;52.870;-1.416;2022-08-19T12:30:37;100857.63;;;20.45;54.09
28448;BME280;15675;52.870;-1.416;2022-08-19T12:33:03;100858.84;;;20.60;53.73
28448;BME280;15675;52.870;-1.416;2022-08-19T12:35:28;100848.69;;;20.49;53.72
28448;BME280;15675;52.870;-1.416;2022-08-19T12:37:55;100853.16;;;20.73;54.09
28448;BME280;15675;52.870;-1.416;2022-08-19T12:40:21;100858.56;;;20.69;54.96
28448;BME280;15675;52.870;-1.416;2022-08-19T12:42:47;100847.13;;;20.69;53.70
28448;BME280;15675;52.870;-1.416;2022-08-19T12:45:15;100840.38;;;20.60;53.19
28448;BME280;15675;52.870;-1.416;2022-08-19T12:47:41;100856.59;;;20.98;52.71
28448;BME280;15675;52.870;-1.416;2022-08-19T12:50:07;100846.03;;;21.22;51.90
28448;BME280;15675;52.870;-1.416;2022-08-19T12:52:37;100851.78;;;21.10;51.74
28448;BME280;15675;52.870;-1.416;2022-08-19T12:55:05;100856.44;;;20.79;51.48